Time;durP1;ratioP1;P1;durP2;ratioP2;P2;SDS_P1;SDS_P2;PMS_P1;PMS_P2;Temp;Humidity;BMP_temperature;BMP_pressure;BME280_temperature;BME280_humidity;BME280_pressure;Samples;Min_cycle;Max_cycle;Signal;HPM_P1;HPM_P2
2021/05/06 00:01:57;;;;;;;1.92;1.00;;;;;;;17.41;50.12;100893.88;4995157;28;20053;-81
2021/05/06 00:38:55;;;;;;;2.13;0.85;;;;;;;17.37;49.82;100893.00;4920047;28;20097;-80
2021/05/06 01:04:51;;;;;;;1.52;0.90;;;;;;;17.34;49.81;100872.25;5023206;28;20036;-78
2021/05/06 01:07:34;;;;;;;1.75;0.85;;;;;;;17.32;49.94;100866.19;5005187;28;20162;-80
2021/05/06 01:12:51;;;;;;;1.92;1.00;;;;;;;17.33;49.96;100857.50;5022615;28;20044;-80
2021/05/06 01:15:16;;;;;;;1.23;0.70;;;;;;;17.31;49.88;100856.66;5037315;23;20058;-79
2021/05/06 01:20:19;;;;;;;2.25;0.85;;;;;;;17.33;50.03;100856.63;4789860;26;20062;-81
2021/05/06 01:22:45;;;;;;;1.63;0.80;;;;;;;17.29;50.13;100845.41;5022335;28;20076;-78
2021/05/06 01:25:12;;;;;;;1.17;0.80;;;;;;;17.30;49.84;100848.88;5005984;28;20030;-79
2021/05/06 01:28:03;;;;;;;1.50;0.82;;;;;;;17.30;49.75;100848.88;5021372;28;20061;-79
2021/05/06 01:30:49;;;;;;;1.33;0.82;;;;;;;17.30;50.00;100844.53;4966037;29;20046;-79
2021/05/06 01:33:38;;;;;;;1.30;0.75;;;;;;;17.30;49.91;100841.94;4963107;29;20035;-80
2021/05/06 01:36:08;;;;;;;1.38;0.90;;;;;;;17.29;50.01;100840.22;4978971;28;20063;-79
2021/05/06 01:39:00;;;;;;;1.23;0.80;;;;;;;17.31;49.88;100841.06;5096981;23;20054;-81
2021/05/06 01:44:07;;;;;;;1.58;0.70;;;;;;;17.32;49.92;100841.91;4979812;28;20027;-82
2021/05/06 01:59:59;;;;;;;1.42;0.85;;;;;;;17.26;49.88;100824.63;5000818;28;20104;-81
2021/05/06 02:02:24;;;;;;;1.85;0.70;;;;;;;17.25;50.06;100825.50;5014923;28;20027;-81
2021/05/06 02:11:01;;;;;;;1.80;0.95;;;;;;;17.23;50.31;100815.09;5013625;28;20045;-79
2021/05/06 02:13:36;;;;;;;1.48;0.75;;;;;;;17.23;49.76;100822.91;5106238;23;20520;-79
2021/05/06 02:19:39;;;;;;;0.65;0.60;;;;;;;17.22;49.89;100821.19;5011308;28;20067;-79
2021/05/06 02:22:09;;;;;;;1.88;0.82;;;;;;;17.22;50.05;100820.31;4997898;28;20136;-79
2021/05/06 02:24:34;;;;;;;3.47;0.90;;;;;;;17.21;49.89;100813.41;4983050;28;20045;-78
2021/05/06 02:27:00;;;;;;;1.20;0.80;;;;;;;17.23;49.89;100811.66;4983801;28;20034;-81
2021/05/06 02:29:26;;;;;;;1.50;0.80;;;;;;;17.20;49.95;100809.94;4984472;28;20045;-79
2021/05/06 02:31:51;;;;;;;1.63;0.85;;;;;;;17.20;50.07;100809.06;5022806;23;20050;-82
2021/05/06 02:34:17;;;;;;;0.75;0.60;;;;;;;17.19;49.95;100810.81;5001723;28;20055;-79
2021/05/06 02:36:43;;;;;;;0.90;0.60;;;;;;;17.18;49.87;100801.28;4985938;28;20042;-78
2021/05/06 02:39:09;;;;;;;1.83;1.00;;;;;;;17.21;50.17;100806.47;4999729;28;20053;-79
2021/05/06 02:44:58;;;;;;;1.00;0.70;;;;;;;17.19;50.08;100799.53;5019244;28;20046;-78
2021/05/06 02:47:26;;;;;;;1.10;0.60;;;;;;;17.20;49.80;100793.44;4986517;28;20070;-79
2021/05/06 02:49:58;;;;;;;0.90;0.60;;;;;;;17.18;49.92;100792.59;5002580;28;20009;-79
2021/05/06 02:57:41;;;;;;;1.17;0.80;;;;;;;17.17;50.13;100788.28;4976705;26;20047;-84
2021/05/06 03:05:23;;;;;;;1.45;0.80;;;;;;;17.16;49.91;100790.03;5035902;28;20073;-79
2021/05/06 03:07:57;;;;;;;2.80;0.80;;;;;;;17.18;49.91;100782.19;5021806;28;20053;-78
2021/05/06 03:24:13;;;;;;;2.15;0.80;;;;;;;17.15;50.08;100777.03;5017767;28;20061;-80
2021/05/06 03:26:55;;;;;;;1.40;0.70;;;;;;;17.15;49.92;100777.91;5040923;23;20054;-80
2021/05/06 03:29:33;;;;;;;1.17;0.73;;;;;;;17.13;50.23;100769.25;5322619;23;21457;-81
2021/05/06 03:42:43;;;;;;;1.05;0.73;;;;;;;17.14;49.97;100764.94;5018465;28;20049;-80
2021/05/06 04:03:12;;;;;;;1.92;0.70;;;;;;;17.13;49.92;100760.59;4980629;28;20047;-79
2021/05/06 04:25:37;;;;;;;1.80;0.90;;;;;;;17.10;49.62;100761.47;5020104;28;20061;-80
2021/05/06 04:28:42;;;;;;;1.53;1.07;;;;;;;17.11;49.62;100763.19;5000847;28;20018;-80
2021/05/06 04:36:36;;;;;;;1.05;0.75;;;;;;;17.10;49.75;100756.28;5002584;28;20077;-80
2021/05/06 04:39:02;;;;;;;1.52;0.73;;;;;;;17.09;49.80;100754.53;5002677;28;20026;-79
2021/05/06 04:45:38;;;;;;;1.30;0.90;;;;;;;17.11;49.78;100763.19;5099763;23;20016;-79
2021/05/06 05:55:06;;;;;;;3.35;1.15;;;;;;;18.98;46.11;100741.78;4793782;30;20404;-88
2021/05/06 05:57:31;;;;;;;4.43;1.10;;;;;;;19.09;45.37;100750.28;4777123;30;20047;-88
2021/05/06 05:59:57;;;;;;;2.28;1.10;;;;;;;19.24;45.15;100751.78;4790612;30;20449;-90
2021/05/06 06:02:22;;;;;;;2.67;1.05;;;;;;;19.32;44.82;100751.66;4791786;30;20031;-88
2021/05/06 06:04:48;;;;;;;2.58;1.10;;;;;;;19.39;44.63;100744.56;4777509;30;20407;-86
2021/05/06 06:07:13;;;;;;;23.20;4.97;;;;;;;19.40;45.65;100749.75;4794816;29;20023;-84
2021/05/06 06:09:39;;;;;;;31.75;8.02;;;;;;;19.45;45.86;100753.13;4763248;30;21009;-86
2021/05/06 06:12:04;;;;;;;29.08;7.15;;;;;;;19.57;46.09;100762.47;4792001;30;20032;-86
2021/05/06 06:14:56;;;;;;;20.25;6.00;;;;;;;19.68;45.67;100750.06;4778730;30;20065;-85
2021/05/06 06:17:22;;;;;;;23.00;5.15;;;;;;;19.75;45.21;100744.75;4790104;30;20044;-84
2021/05/06 06:19:51;;;;;;;17.98;5.10;;;;;;;19.91;44.58;100751.41;4747816;30;20039;-85
2021/05/06 06:22:21;;;;;;;17.33;4.72;;;;;;;19.92;44.43;100746.16;4792297;29;20491;-84
2021/05/06 06:24:48;;;;;;;15.82;4.40;;;;;;;19.97;44.47;100746.06;4776931;30;20035;-85
2021/05/06 06:27:15;;;;;;;19.70;4.60;;;;;;;19.95;44.44;100742.63;4790743;30;20036;-85
2021/05/06 06:29:41;;;;;;;17.60;4.90;;;;;;;19.99;44.60;100746.91;4790073;30;20039;-84
2021/05/06 06:32:10;;;;;;;19.15;4.43;;;;;;;20.01;44.68;100749.44;4774363;30;20419;-84
2021/05/06 06:34:35;;;;;;;13.48;4.00;;;;;;;19.99;44.43;100756.47;4790763;30;20045;-83
2021/05/06 06:37:01;;;;;;;12.60;4.30;;;;;;;20.04;44.57;100757.25;4774793;30;20126;-84
2021/05/06 06:39:27;;;;;;;14.05;4.03;;;;;;;20.10;44.07;100755.34;4790617;30;20066;-83
2021/05/06 06:41:53;;;;;;;11.70;4.03;;;;;;;20.24;44.32;100757.66;4775265;30;20035;-85
2021/05/06 06:44:22;;;;;;;10.43;4.05;;;;;;;19.92;44.54;100756.59;4775115;30;20061;-84
2021/05/06 06:47:00;;;;;;;13.60;4.18;;;;;;;19.42;45.92;100753.19;4775267;30;20035;-85
2021/05/06 06:49:26;;;;;;;10.43;3.60;;;;;;;19.72;45.53;100743.09;4791045;30;20045;-84
2021/05/06 06:51:51;;;;;;;12.70;3.60;;;;;;;19.83;45.01;100748.94;4776355;30;20112;-84
2021/05/06 06:54:17;;;;;;;10.77;3.83;;;;;;;20.18;44.06;100752.56;4789816;30;20487;-81
2021/05/06 06:56:42;;;;;;;7.70;3.42;;;;;;;20.29;43.69;100750.56;4774918;30;20038;-82
2021/05/06 06:59:08;;;;;;;9.32;3.40;;;;;;;20.00;44.10;100740.75;4761287;30;20111;-84
2021/05/06 07:01:35;;;;;;;7.60;3.35;;;;;;;20.01;44.67;100749.44;4802520;30;20059;-82
2021/05/06 07:04:01;;;;;;;9.55;3.30;;;;;;;20.05;44.65;100743.28;4800431;29;20110;-80
2021/05/06 07:06:26;;;;;;;7.95;3.17;;;;;;;19.21;46.25;100745.75;4791905;30;20124;-83
2021/05/06 07:08:52;;;;;;;13.13;3.05;;;;;;;18.71;47.89;100750.91;4792300;30;20487;-85
2021/05/06 07:11:17;;;;;;;7.55;3.33;;;;;;;18.46;48.45;100745.19;4761776;30;20415;-87
2021/05/06 07:13:43;;;;;;;10.05;3.17;;;;;;;18.34;48.92;100742.78;4793486;30;20035;-87
2021/05/06 07:16:08;;;;;;;8.77;3.30;;;;;;;18.26;48.82;100743.72;4792995;29;20035;-83
2021/05/06 07:18:36;;;;;;;8.15;2.78;;;;;;;18.19;49.17;100755.09;4780154;30;20039;-83
2021/05/06 07:21:03;;;;;;;7.15;3.22;;;;;;;18.16;49.33;100749.94;4770601;30;20043;-83
2021/05/06 07:23:30;;;;;;;8.13;2.55;;;;;;;18.18;49.35;100749.91;4799653;30;20027;-83
2021/05/06 07:25:57;;;;;;;7.75;3.00;;;;;;;18.42;48.25;100747.00;4797696;30;20027;-84
2021/05/06 07:28:35;;;;;;;8.57;3.08;;;;;;;19.07;46.65;100745.97;4790556;30;20092;-85
2021/05/06 07:31:02;;;;;;;7.13;2.80;;;;;;;19.22;46.40;100743.09;4793501;30;20055;-85
2021/05/06 07:33:29;;;;;;;5.85;2.70;;;;;;;19.50;45.71;100732.16;4775802;30;20499;-87
2021/05/06 07:35:57;;;;;;;5.88;2.60;;;;;;;19.64;45.48;100742.34;4794304;30;20047;-86
2021/05/06 07:38:23;;;;;;;8.02;2.65;;;;;;;19.63;45.57;100743.22;4791138;30;20035;-81
2021/05/06 07:40:50;;;;;;;5.93;2.40;;;;;;;19.58;45.56;100745.94;4793853;30;20042;-82
2021/05/06 07:43:15;;;;;;;6.45;2.55;;;;;;;19.63;45.48;100743.22;4774320;30;20039;-81
2021/05/06 07:45:40;;;;;;;4.65;2.40;;;;;;;19.04;46.96;100741.69;4790476;29;20460;-81
2021/05/06 07:48:06;;;;;;;5.13;2.30;;;;;;;19.52;45.85;100749.50;4773450;30;20062;-80
2021/05/06 07:50:32;;;;;;;6.65;2.30;;;;;;;19.64;45.59;100744.94;4745966;30;20047;-80
2021/05/06 07:53:07;;;;;;;5.07;2.40;;;;;;;19.85;44.94;100743.69;4759900;30;20031;-82
2021/05/06 07:55:32;;;;;;;5.00;2.38;;;;;;;19.65;45.28;100747.53;4774262;30;20120;-80
2021/05/06 07:57:59;;;;;;;4.63;2.33;;;;;;;19.92;44.67;100746.16;4772722;30;20058;-81
2021/05/06 08:00:26;;;;;;;5.90;2.50;;;;;;;19.70;45.00;100750.94;4742919;30;20039;-81
2021/05/06 08:02:51;;;;;;;8.18;2.58;;;;;;;18.86;47.35;100749.84;4789674;30;20364;-81
2021/05/06 08:05:17;;;;;;;5.75;2.33;;;;;;;18.80;47.83;100749.94;4788108;30;20034;-86
2021/05/06 08:07:43;;;;;;;4.68;2.00;;;;;;;19.39;46.10;100744.56;4758134;30;20558;-85
2021/05/06 08:10:10;;;;;;;4.18;2.30;;;;;;;19.53;45.39;100742.53;4789056;29;20053;-86
2021/05/06 08:12:36;;;;;;;5.70;2.08;;;;;;;19.14;46.64;100744.13;4788876;30;20126;-86
2021/05/06 08:15:06;;;;;;;5.10;2.10;;;;;;;18.73;47.82;100738.69;4758284;30;20047;-86
2021/05/06 08:17:32;;;;;;;6.40;2.35;;;;;;;18.64;48.02;100750.13;4761066;30;20046;-85
2021/05/06 08:19:58;;;;;;;4.75;1.88;;;;;;;18.90;47.29;100730.63;4744813;30;20043;-85
2021/05/06 08:22:24;;;;;;;3.83;2.03;;;;;;;19.00;46.87;100734.81;4758356;30;20130;-85
2021/05/06 08:24:50;;;;;;;3.53;2.03;;;;;;;19.02;46.75;100721.75;4787833;30;20035;-86
2021/05/06 08:27:16;;;;;;;4.22;1.77;;;;;;;19.03;47.01;100726.06;4772805;30;20381;-87
2021/05/06 08:29:41;;;;;;;4.72;2.15;;;;;;;19.01;46.73;100725.22;4757872;30;20042;-85
2021/05/06 08:32:06;;;;;;;3.08;1.50;;;;;;;18.92;46.71;100721.03;4773531;30;20082;-86
2021/05/06 08:34:32;;;;;;;5.07;1.92;;;;;;;18.90;46.93;100718.47;4774219;30;20039;-90
2021/05/06 08:36:57;;;;;;;2.97;1.70;;;;;;;18.91;47.18;100724.53;4773684;30;20039;-90
2021/05/06 08:39:23;;;;;;;3.03;1.77;;;;;;;18.69;47.74;100731.81;4788990;30;20050;-87
2021/05/06 08:41:48;;;;;;;3.05;1.70;;;;;;;18.62;47.83;100728.44;4788983;30;20514;-88
2021/05/06 08:44:17;;;;;;;6.22;2.15;;;;;;;18.74;47.30;100732.59;4758267;30;20035;-86
2021/05/06 08:46:47;;;;;;;4.50;1.75;;;;;;;18.59;47.84;100735.44;4773236;30;20537;-86
2021/05/06 08:49:13;;;;;;;3.35;1.58;;;;;;;18.64;47.75;100744.91;4758948;30;20040;-87
2021/05/06 08:51:40;;;;;;;3.03;1.55;;;;;;;18.55;48.01;100734.59;4774887;30;20387;-85
2021/05/06 08:54:06;;;;;;;2.72;1.50;;;;;;;18.56;47.74;100733.75;4791156;30;20032;-86
2021/05/06 08:56:32;;;;;;;5.13;1.60;;;;;;;18.67;47.57;100729.22;4775435;30;20035;-87
2021/05/06 08:58:58;;;;;;;4.15;1.70;;;;;;;18.69;47.51;100727.44;4788554;29;20035;-85
2021/05/06 09:01:23;;;;;;;4.05;1.83;;;;;;;18.68;47.29;100727.47;4789503;30;20093;-85
2021/05/06 09:03:49;;;;;;;2.60;1.50;;;;;;;18.49;48.31;100738.19;4774815;30;20472;-87
2021/05/06 09:06:23;;;;;;;4.43;1.70;;;;;;;18.44;48.38;100744.34;4776004;30;20039;-86
2021/05/06 09:08:53;;;;;;;3.95;1.40;;;;;;;18.48;48.37;100740.81;4763763;30;20168;-85
2021/05/06 09:11:32;;;;;;;2.47;1.48;;;;;;;18.53;47.89;100741.63;4778626;30;20036;-85
2021/05/06 09:14:08;;;;;;;2.97;1.50;;;;;;;18.54;47.78;100726.84;4792457;30;20092;-84
2021/05/06 09:16:38;;;;;;;4.15;1.60;;;;;;;18.51;47.96;100738.19;4792323;30;20032;-84
2021/05/06 09:19:06;;;;;;;4.60;1.48;;;;;;;18.54;47.89;100735.50;4794513;30;20038;-83
2021/05/06 09:21:37;;;;;;;2.97;1.70;;;;;;;18.51;47.93;100730.34;4770764;30;20032;-86
2021/05/06 09:24:23;;;;;;;4.35;1.60;;;;;;;18.60;47.76;100724.16;4811427;30;20015;-83
2021/05/06 09:26:52;;;;;;;2.38;1.33;;;;;;;18.64;47.59;100718.84;4796168;30;20039;-83
2021/05/06 09:29:38;;;;;;;3.78;1.60;;;;;;;18.63;47.68;100724.94;4763202;30;20038;-84
2021/05/06 09:32:22;;;;;;;3.47;1.55;;;;;;;18.64;47.64;100725.78;4794409;30;20075;-90
2021/05/06 09:34:54;;;;;;;2.40;1.50;;;;;;;18.65;47.50;100725.78;4792331;30;20031;-88
2021/05/06 09:37:25;;;;;;;2.67;1.30;;;;;;;18.62;47.87;100730.19;4792539;30;20126;-85
2021/05/06 09:40:06;;;;;;;3.67;1.50;;;;;;;18.61;47.65;100726.69;4791424;30;20073;-83
2021/05/06 09:42:52;;;;;;;2.92;1.35;;;;;;;18.55;47.95;100720.72;4792524;30;20134;-84
2021/05/06 09:45:23;;;;;;;3.33;1.48;;;;;;;18.58;47.65;100718.09;4794289;29;20035;-86
2021/05/06 09:48:11;;;;;;;2.83;1.40;;;;;;;18.56;47.65;100731.13;4793303;30;20031;-83
2021/05/06 09:50:38;;;;;;;2.67;1.40;;;;;;;18.57;47.79;100730.25;4796261;30;20047;-82
2021/05/06 09:53:12;;;;;;;2.85;1.20;;;;;;;18.56;47.93;100712.91;4793538;30;20027;-82
2021/05/06 09:55:39;;;;;;;4.18;1.27;;;;;;;18.60;47.64;100718.94;4790532;30;20050;-82
2021/05/06 09:58:14;;;;;;;2.95;1.50;;;;;;;18.63;47.50;100716.25;4776471;30;20039;-82
2021/05/06 10:00:40;;;;;;;2.92;1.35;;;;;;;18.58;47.71;100716.34;4791819;30;20118;-84
2021/05/06 10:03:11;;;;;;;4.63;1.60;;;;;;;18.65;47.65;100714.50;4792187;30;20114;-82
2021/05/06 10:05:38;;;;;;;8.70;1.52;;;;;;;18.65;47.70;100712.75;4777069;30;20039;-83
2021/05/06 10:08:04;;;;;;;5.32;1.60;;;;;;;18.65;47.48;100706.69;4792365;30;20084;-83
2021/05/06 10:10:30;;;;;;;3.92;1.45;;;;;;;18.65;47.43;100704.06;4791813;30;20023;-83
2021/05/06 10:12:56;;;;;;;3.15;1.30;;;;;;;18.66;47.65;100708.38;4790131;30;20043;-84
2021/05/06 10:15:22;;;;;;;5.35;1.48;;;;;;;18.67;47.31;100710.13;4792091;30;20572;-83
2021/05/06 10:17:48;;;;;;;3.35;1.40;;;;;;;18.65;47.39;100704.06;4775560;30;20118;-85
2021/05/06 10:20:14;;;;;;;2.92;1.50;;;;;;;18.64;47.29;100695.41;4761146;30;20031;-83
2021/05/06 10:22:41;;;;;;;4.38;1.58;;;;;;;18.62;47.21;100701.53;4791036;30;20141;-83
2021/05/06 10:25:08;;;;;;;4.97;1.73;;;;;;;18.61;47.49;100710.22;4789851;30;20448;-82
2021/05/06 10:27:34;;;;;;;2.88;1.17;;;;;;;18.57;47.37;100706.78;4775440;30;20104;-82
2021/05/06 10:30:03;;;;;;;3.03;1.17;;;;;;;18.59;47.70;100707.63;4774949;30;20539;-82
2021/05/06 10:32:30;;;;;;;3.80;1.30;;;;;;;18.59;47.63;100710.22;4791832;30;20056;-82
2021/05/06 10:34:58;;;;;;;2.33;1.45;;;;;;;18.57;47.72;100692.91;4776279;30;20039;-81
2021/05/06 10:37:30;;;;;;;4.43;1.20;;;;;;;18.56;47.61;100692.06;4791732;30;20066;-83
2021/05/06 10:39:56;;;;;;;3.72;1.50;;;;;;;18.57;47.73;100685.94;4776243;30;20065;-82
2021/05/06 10:42:25;;;;;;;2.58;1.20;;;;;;;18.53;47.81;100692.09;4775296;30;20043;-82
2021/05/06 10:44:50;;;;;;;3.40;1.05;;;;;;;18.53;47.73;100704.25;4792065;29;20534;-81
2021/05/06 10:47:18;;;;;;;3.58;1.15;;;;;;;18.53;47.67;100686.91;4776289;30;20098;-83
2021/05/06 10:49:43;;;;;;;2.63;1.30;;;;;;;18.59;47.74;100688.53;4776814;30;20092;-82
2021/05/06 10:52:11;;;;;;;3.70;1.10;;;;;;;18.55;47.42;100689.47;4777224;30;20039;-82
2021/05/06 10:54:40;;;;;;;4.38;1.40;;;;;;;18.51;47.50;100683.44;4777451;30;20099;-82
2021/05/06 10:57:34;;;;;;;2.75;1.48;;;;;;;18.50;47.71;100689.53;4776467;30;20122;-85
2021/05/06 11:00:00;;;;;;;2.63;1.30;;;;;;;18.49;47.74;100680.00;4778171;30;20035;-82
2021/05/06 11:02:44;;;;;;;2.08;1.20;;;;;;;18.54;47.52;100682.53;4792217;30;20028;-83
2021/05/06 11:05:13;;;;;;;;;;;;;;;18.56;47.53;100678.16;4793373;30;20482;-84
2021/05/06 11:07:39;;;;;;;3.08;1.45;;;;;;;18.55;47.54;100673.81;4791662;30;19917;-82
2021/05/06 11:10:06;;;;;;;3.97;1.20;;;;;;;18.53;47.34;100675.59;4791096;30;20390;-83
2021/05/06 11:12:36;;;;;;;3.33;1.10;;;;;;;18.52;47.54;100679.09;4790871;30;20122;-81
2021/05/06 11:15:05;;;;;;;1.90;1.15;;;;;;;18.50;47.77;100676.50;4777079;30;20092;-82
2021/05/06 11:17:37;;;;;;;2.65;1.20;;;;;;;18.50;47.68;100686.94;4791717;30;20390;-82
2021/05/06 11:20:25;;;;;;;2.38;1.27;;;;;;;18.50;47.97;100664.31;4791583;30;20487;-81
2021/05/06 11:22:58;;;;;;;2.10;1.10;;;;;;;18.52;47.48;100671.28;4790087;30;20046;-82
2021/05/06 11:25:38;;;;;;;2.60;1.20;;;;;;;18.56;47.39;100671.19;4790533;30;20031;-84
2021/05/06 11:28:27;;;;;;;2.40;1.30;;;;;;;18.55;47.32;100664.25;4790371;30;20521;-83
2021/05/06 11:30:53;;;;;;;4.35;1.00;;;;;;;18.53;47.66;100658.22;4790539;30;20146;-81
2021/05/06 11:33:19;;;;;;;3.67;1.20;;;;;;;18.53;47.57;100671.25;4760017;30;20035;-83
2021/05/06 11:36:09;;;;;;;2.30;1.10;;;;;;;18.59;47.64;100667.69;4791238;30;20031;-81
2021/05/06 11:38:34;;;;;;;3.17;1.05;;;;;;;18.59;47.52;100665.06;4790602;30;20084;-82
2021/05/06 11:40:59;;;;;;;4.05;1.17;;;;;;;18.59;47.34;100658.09;4791909;30;20039;-82
2021/05/06 11:43:25;;;;;;;2.80;1.40;;;;;;;18.56;47.51;100660.78;4794818;30;20038;-82
2021/05/06 11:46:06;;;;;;;3.00;1.10;;;;;;;18.53;47.37;100653.03;4809945;29;20042;-83
2021/05/06 11:48:46;;;;;;;2.65;1.20;;;;;;;18.51;47.66;100652.19;4795611;30;20035;-81
2021/05/06 11:51:39;;;;;;;3.65;1.08;;;;;;;18.53;47.56;100650.41;4790684;30;20045;-81
2021/05/06 11:54:05;;;;;;;3.63;1.08;;;;;;;18.53;47.41;100650.41;4792126;30;20038;-81
2021/05/06 11:56:32;;;;;;;3.50;1.10;;;;;;;18.56;47.48;100652.97;4775690;30;20031;-81
2021/05/06 11:58:58;;;;;;;3.60;1.33;;;;;;;18.54;47.29;100646.91;4789614;30;20036;-84
2021/05/06 12:01:26;;;;;;;2.08;1.20;;;;;;;18.53;47.43;100658.22;4789419;30;20058;-81
2021/05/06 12:03:52;;;;;;;2.33;1.20;;;;;;;18.52;47.57;100653.03;4791604;30;20034;-81
2021/05/06 12:06:28;;;;;;;2.40;1.30;;;;;;;18.56;47.33;100646.91;4790854;30;20031;-83
2021/05/06 12:08:54;;;;;;;2.28;1.30;;;;;;;18.57;47.29;100646.84;4790601;30;20038;-82
2021/05/06 12:11:19;;;;;;;2.20;1.08;;;;;;;18.57;47.42;100639.03;4789287;30;20036;-84
2021/05/06 12:13:46;;;;;;;2.10;1.25;;;;;;;18.55;47.34;100634.72;4774388;30;20063;-86
2021/05/06 12:16:21;;;;;;;3.78;1.45;;;;;;;18.59;47.16;100639.88;4775499;30;20403;-81
2021/05/06 12:18:57;;;;;;;2.38;1.25;;;;;;;18.61;47.07;100643.31;4791570;30;20036;-82
2021/05/06 12:21:31;;;;;;;2.40;1.50;;;;;;;18.59;47.22;100637.25;4792156;30;20042;-81
2021/05/06 12:23:58;;;;;;;2.15;1.15;;;;;;;18.59;47.29;100642.47;4791583;30;20106;-82
2021/05/06 12:26:23;;;;;;;1.77;1.10;;;;;;;18.61;47.32;100651.13;4791556;30;20039;-83
2021/05/06 12:28:49;;;;;;;3.05;1.20;;;;;;;18.58;47.63;100637.31;4790331;30;20032;-83
2021/05/06 12:31:14;;;;;;;2.22;1.30;;;;;;;18.61;47.14;100639.84;4793616;30;20055;-83
2021/05/06 12:33:40;;;;;;;3.00;1.20;;;;;;;18.59;47.38;100639.00;4792804;30;20054;-83
2021/05/06 12:36:05;;;;;;;2.47;1.30;;;;;;;18.57;47.16;100631.22;4775204;30;20031;-83
2021/05/06 12:38:31;;;;;;;3.08;1.17;;;;;;;18.59;47.69;100634.66;4791548;30;20058;-83
2021/05/06 12:41:03;;;;;;;1.85;1.20;;;;;;;18.61;47.31;100632.03;4796740;30;20112;-86
2021/05/06 12:43:29;;;;;;;1.63;1.10;;;;;;;18.62;47.44;100638.97;4793822;30;20035;-82
2021/05/06 12:45:58;;;;;;;2.38;1.30;;;;;;;18.62;47.30;100636.38;4777949;30;20034;-82
2021/05/06 12:48:59;;;;;;;2.20;1.42;;;;;;;18.62;47.33;100639.81;4775646;30;20071;-83
2021/05/06 12:51:35;;;;;;;2.53;1.48;;;;;;;18.63;47.22;100632.88;4774794;30;20035;-82
2021/05/06 12:54:07;;;;;;;2.13;1.25;;;;;;;18.62;47.54;100626.81;4773691;30;20051;-81
2021/05/06 12:56:38;;;;;;;1.85;1.25;;;;;;;18.61;47.30;100627.66;4774308;29;20028;-81
2021/05/06 12:59:27;;;;;;;3.10;1.40;;;;;;;18.60;47.45;100625.97;4792794;30;20035;-81
2021/05/06 13:02:05;;;;;;;1.42;1.05;;;;;;;18.57;47.50;100631.22;4794024;30;20483;-81
2021/05/06 13:04:59;;;;;;;2.22;1.30;;;;;;;18.56;47.62;100613.00;4795144;30;20042;-83
2021/05/06 13:07:26;;;;;;;1.95;1.10;;;;;;;18.55;47.49;100627.75;4793177;30;20046;-81
2021/05/06 13:09:52;;;;;;;1.55;1.00;;;;;;;18.56;47.62;100621.69;4777692;30;20066;-81
2021/05/06 13:12:26;;;;;;;4.30;1.25;;;;;;;18.54;47.66;100623.47;4763338;30;20471;-81
2021/05/06 13:15:02;;;;;;;1.83;1.20;;;;;;;18.59;47.51;100626.84;4793579;30;20038;-80
2021/05/06 13:17:34;;;;;;;2.13;1.00;;;;;;;18.60;47.46;100620.75;4792054;30;20027;-81
2021/05/06 13:20:16;;;;;;;4.25;1.30;;;;;;;18.60;47.58;100620.75;4793557;30;20483;-82
2021/05/06 13:22:41;;;;;;;1.70;1.15;;;;;;;18.63;47.36;100614.63;4793909;30;20045;-84
2021/05/06 13:25:07;;;;;;;2.08;1.10;;;;;;;18.62;47.45;100613.78;4794617;30;20047;-83
2021/05/06 13:27:44;;;;;;;2.58;1.20;;;;;;;18.61;47.46;100606.81;4782341;30;20027;-85
2021/05/06 13:30:11;;;;;;;2.15;1.10;;;;;;;18.61;47.44;100609.41;4786037;30;20035;-81
2021/05/06 13:32:41;;;;;;;1.85;1.27;;;;;;;18.62;47.37;100599.88;4792785;30;20078;-82
2021/05/06 13:35:15;;;;;;;3.05;1.10;;;;;;;18.65;47.29;100599.81;4793387;30;20103;-82
2021/05/06 13:37:46;;;;;;;2.38;1.30;;;;;;;18.63;47.33;100594.63;4762313;30;20129;-84
2021/05/06 13:40:12;;;;;;;2.17;1.10;;;;;;;18.67;47.37;100598.91;4793120;30;20039;-82
2021/05/06 13:42:38;;;;;;;1.98;1.20;;;;;;;18.68;47.30;100602.34;4777217;30;20039;-81
2021/05/06 13:45:06;;;;;;;1.52;1.20;;;;;;;18.67;47.30;100588.47;4778094;30;20046;-82
2021/05/06 13:47:31;;;;;;;2.15;1.10;;;;;;;18.66;47.36;100589.38;4793824;30;20552;-81
2021/05/06 13:49:57;;;;;;;1.73;1.23;;;;;;;18.68;47.24;100589.31;4762914;30;20059;-81
2021/05/06 13:52:25;;;;;;;2.25;1.10;;;;;;;18.67;47.53;100590.22;4777095;30;20088;-81
2021/05/06 13:54:52;;;;;;;1.50;0.98;;;;;;;18.65;47.20;100592.84;4776447;30;20492;-81
2021/05/06 13:57:18;;;;;;;1.48;1.00;;;;;;;18.65;47.35;100590.25;4776748;30;20027;-81
2021/05/06 13:59:46;;;;;;;1.80;1.00;;;;;;;18.65;47.36;100594.59;4776994;30;20043;-82
2021/05/06 14:02:15;;;;;;;1.48;1.10;;;;;;;18.63;47.15;100580.75;4748886;30;20130;-82
2021/05/06 14:04:41;;;;;;;2.28;1.10;;;;;;;18.64;47.21;100587.66;4777900;30;20110;-81
2021/05/06 14:07:07;;;;;;;1.58;0.90;;;;;;;18.62;46.96;100576.44;4793708;30;20035;-82
2021/05/06 14:09:35;;;;;;;1.70;0.82;;;;;;;18.62;47.30;100569.47;4747190;30;20039;-83
2021/05/06 14:12:01;;;;;;;1.88;1.15;;;;;;;18.63;47.13;100578.97;4776739;30;20068;-80
2021/05/06 14:14:26;;;;;;;1.35;1.00;;;;;;;18.61;47.19;100572.94;4762249;30;20031;-81
2021/05/06 14:16:51;;;;;;;1.65;0.90;;;;;;;18.65;46.94;100571.16;4775716;30;20047;-82
2021/05/06 14:19:17;;;;;;;1.67;1.00;;;;;;;18.64;47.11;100569.41;4775163;30;20043;-82
2021/05/06 14:21:47;;;;;;;1.80;0.90;;;;;;;18.64;47.26;100578.13;4791380;30;20051;-80
2021/05/06 14:24:12;;;;;;;4.22;1.00;;;;;;;18.64;47.25;100575.50;4790201;30;20027;-81
2021/05/06 14:26:38;;;;;;;2.10;1.10;;;;;;;18.73;47.22;100576.19;4775092;30;20151;-81
2021/05/06 14:29:04;;;;;;;4.30;1.30;;;;;;;18.76;47.41;100570.94;4790825;30;20077;-82
2021/05/06 14:31:30;;;;;;;1.88;1.10;;;;;;;18.75;47.24;100572.72;4775489;30;20521;-82
2021/05/06 14:33:55;;;;;;;2.10;1.10;;;;;;;18.76;47.33;100570.94;4791127;30;20045;-85
2021/05/06 14:36:21;;;;;;;1.30;0.82;;;;;;;18.71;47.46;100571.91;4776223;30;20092;-83
2021/05/06 14:38:47;;;;;;;2.17;1.15;;;;;;;18.74;47.29;100581.41;4761193;30;20038;-82
2021/05/06 14:41:12;;;;;;;2.33;1.10;;;;;;;18.74;47.22;100576.19;4775386;30;20035;-83
2021/05/06 14:43:38;;;;;;;1.48;0.88;;;;;;;18.76;47.21;100576.16;4745317;30;20032;-84
2021/05/06 14:46:04;;;;;;;1.10;0.90;;;;;;;18.74;47.37;100581.41;4789294;29;20142;-83
2021/05/06 14:48:31;;;;;;;3.60;1.00;;;;;;;18.72;47.60;100572.75;4790477;30;20149;-83
2021/05/06 14:50:57;;;;;;;2.15;1.10;;;;;;;18.70;47.55;100575.41;4791751;30;20039;-85
2021/05/06 14:53:23;;;;;;;2.75;0.90;;;;;;;18.69;47.59;100573.66;4776693;30;20407;-82
2021/05/06 14:55:49;;;;;;;1.95;1.20;;;;;;;18.70;47.52;100575.41;4761523;30;20031;-82
2021/05/06 14:58:15;;;;;;;1.23;0.80;;;;;;;18.70;47.78;100582.34;4790752;30;20031;-81
2021/05/06 15:00:41;;;;;;;1.70;1.00;;;;;;;18.70;47.45;100582.34;4774773;30;20038;-83
2021/05/06 15:03:06;;;;;;;1.95;0.90;;;;;;;18.70;47.52;100587.56;4775528;30;20114;-82
2021/05/06 15:08:03;;;;;;;2.22;1.10;;;;;;;18.68;47.48;100582.38;4817967;24;20131;-82
2021/05/06 15:10:28;;;;;;;1.30;1.00;;;;;;;18.65;47.32;100579.81;4763903;29;20039;-82
2021/05/06 15:12:54;;;;;;;1.48;0.90;;;;;;;18.62;47.79;100579.88;4791726;29;20037;-82
2021/05/06 15:15:19;;;;;;;1.98;1.13;;;;;;;18.64;47.58;100579.84;4792885;29;20118;-82
2021/05/06 15:17:49;;;;;;;1.52;1.00;;;;;;;18.66;47.26;100588.50;4763123;29;20049;-83
2021/05/06 15:20:14;;;;;;;1.23;0.70;;;;;;;18.67;47.59;100579.81;4763040;29;20137;-83
2021/05/06 15:22:39;;;;;;;1.63;0.90;;;;;;;18.66;47.43;100586.75;4763413;29;20058;-83
2021/05/06 15:25:06;;;;;;;1.27;0.90;;;;;;;18.68;47.53;100591.94;4763121;29;20035;-84
2021/05/06 15:27:32;;;;;;;1.95;0.95;;;;;;;18.71;47.60;100577.09;4778331;29;20088;-81
2021/05/06 15:29:57;;;;;;;1.45;0.80;;;;;;;18.73;47.46;100589.25;4779159;29;20035;-85
2021/05/06 15:32:22;;;;;;;4.70;1.10;;;;;;;18.71;47.65;100582.31;4793765;29;20042;-82
2021/05/06 15:34:50;;;;;;;1.42;0.88;;;;;;;18.69;47.44;100581.47;4779806;29;20034;-84
2021/05/06 15:37:15;;;;;;;1.50;0.80;;;;;;;18.66;47.61;100571.13;4793933;29;20489;-84
2021/05/06 15:39:42;;;;;;;1.58;0.90;;;;;;;18.68;47.54;100585.00;4795997;29;20035;-83